sensor_id;sensor_type;location;lat;lon;timestamp;temperature;humidity
19232;DHT22;9750;48.730;10.294;2024-01-15T00:02:05;-1.60;99.90
19232;DHT22;9750;48.730;10.294;2024-01-15T00:04:36;-1.60;99.90
19232;DHT22;9750;48.730;10.294;2024-01-15T00:07:04;-1.60;99.90
19232;DHT22;9750;48.730;10.294;2024-01-15T00:09:31;-1.50;99.90
19232;DHT22;9750;48.730;10.294;2024-01-15T00:11:59;-1.50;99.90
19232;DHT22;9750;48.730;10.294;2024-01-15T00:14:27;-1.50;99.90
19232;DHT22;9750;48.730;10.294;2024-01-15T00:16:56;-1.50;99.90
19232;DHT22;9750;48.730;10.294;2024-01-15T00:19:23;-1.50;99.90
19232;DHT22;9750;48.730;10.294;2024-01-15T00:21:50;-1.50;99.90
19232;DHT22;9750;48.730;10.294;2024-01-15T00:24:17;-1.50;99.90
19232;DHT22;9750;48.730;10.294;2024-01-15T00:26:45;-1.50;99.90
19232;DHT22;9750;48.730;10.294;2024-01-15T00:29:12;-1.40;99.90
19232;DHT22;9750;48.730;10.294;2024-01-15T00:31:39;-1.40;99.90
19232;DHT22;9750;48.730;10.294;2024-01-15T00:34:08;-1.40;99.90
19232;DHT22;9750;48.730;10.294;2024-01-15T00:36:36;-1.40;99.90
19232;DHT22;9750;48.730;10.294;2024-01-15T00:39:03;-1.40;99.90
19232;DHT22;9750;48.730;10.294;2024-01-15T00:41:30;-1.40;99.90
19232;DHT22;9750;48.730;10.294;2024-01-15T00:43:58;-1.30;99.90
19232;DHT22;9750;48.730;10.294;2024-01-15T00:46:25;-1.30;99.90
19232;DHT22;9750;48.730;10.294;2024-01-15T00:48:52;-1.30;99.90
19232;DHT22;9750;48.730;10.294;2024-01-15T00:51:21;-1.30;99.90
19232;DHT22;9750;48.730;10.294;2024-01-15T00:53:48;-1.30;99.90
19232;DHT22;9750;48.730;10.294;2024-01-15T00:56:16;-1.30;99.90
19232;DHT22;9750;48.730;10.294;2024-01-15T00:58:44;-1.20;99.90
19232;DHT22;9750;48.730;10.294;2024-01-15T01:01:11;-1.30;99.90
19232;DHT22;9750;48.730;10.294;2024-01-15T01:03:39;-1.20;99.90
19232;DHT22;9750;48.730;10.294;2024-01-15T01:06:06;-1.20;99.90
19232;DHT22;9750;48.730;10.294;2024-01-15T01:08:34;-1.20;99.90
19232;DHT22;9750;48.730;10.294;2024-01-15T01:11:02;-1.20;99.90
19232;DHT22;9750;48.730;10.294;2024-01-15T01:13:29;-1.20;99.90
19232;DHT22;9750;48.730;10.294;2024-01-15T01:15:56;-1.20;99.90
19232;DHT22;9750;48.730;10.294;2024-01-15T01:18:23;-1.20;99.90
19232;DHT22;9750;48.730;10.294;2024-01-15T01:20:51;-1.30;99.90
19232;DHT22;9750;48.730;10.294;2024-01-15T01:23:18;-1.30;99.90
19232;DHT22;9750;48.730;10.294;2024-01-15T01:25:47;-1.30;99.90
19232;DHT22;9750;48.730;10.294;2024-01-15T01:28:14;-1.30;99.90
19232;DHT22;9750;48.730;10.294;2024-01-15T01:30:41;-1.30;99.90
19232;DHT22;9750;48.730;10.294;2024-01-15T01:33:08;-1.40;99.90
19232;DHT22;9750;48.730;10.294;2024-01-15T01:35:36;-1.40;99.90
19232;DHT22;9750;48.730;10.294;2024-01-15T01:38:03;-1.40;99.90
19232;DHT22;9750;48.730;10.294;2024-01-15T01:40:30;-1.40;99.90
19232;DHT22;9750;48.730;10.294;2024-01-15T01:42:59;-1.40;99.90
19232;DHT22;9750;48.730;10.294;2024-01-15T01:45:26;-1.40;99.90
19232;DHT22;9750;48.730;10.294;2024-01-15T01:47:54;-1.40;99.90
19232;DHT22;9750;48.730;10.294;2024-01-15T01:50:21;-1.40;99.90
19232;DHT22;9750;48.730;10.294;2024-01-15T01:52:49;-1.40;99.90
19232;DHT22;9750;48.730;10.294;2024-01-15T01:55:16;-1.40;99.90
19232;DHT22;9750;48.730;10.294;2024-01-15T01:57:45;-1.40;99.90
19232;DHT22;9750;48.730;10.294;2024-01-15T02:00:14;-1.40;99.90
19232;DHT22;9750;48.730;10.294;2024-01-15T02:02:42;-1.40;99.90
19232;DHT22;9750;48.730;10.294;2024-01-15T02:05:10;-1.40;99.90
19232;DHT22;9750;48.730;10.294;2024-01-15T02:07:39;-1.40;99.90
19232;DHT22;9750;48.730;10.294;2024-01-15T02:10:07;-1.40;99.90
19232;DHT22;9750;48.730;10.294;2024-01-15T02:12:35;-1.40;99.90
19232;DHT22;9750;48.730;10.294;2024-01-15T02:15:02;-1.40;99.90
19232;DHT22;9750;48.730;10.294;2024-01-15T02:17:31;-1.40;99.90
19232;DHT22;9750;48.730;10.294;2024-01-15T02:19:58;-1.30;99.90
19232;DHT22;9750;48.730;10.294;2024-01-15T02:22:25;-1.30;99.90
19232;DHT22;9750;48.730;10.294;2024-01-15T02:24:54;-1.20;99.90
19232;DHT22;9750;48.730;10.294;2024-01-15T02:27:21;-1.30;99.90
19232;DHT22;9750;48.730;10.294;2024-01-15T02:29:49;-1.20;99.90
19232;DHT22;9750;48.730;10.294;2024-01-15T02:32:16;-1.20;99.90
19232;DHT22;9750;48.730;10.294;2024-01-15T02:34:43;-1.10;99.90
19232;DHT22;9750;48.730;10.294;2024-01-15T02:37:11;-1.20;99.90
19232;DHT22;9750;48.730;10.294;2024-01-15T02:39:38;-1.20;99.90
19232;DHT22;9750;48.730;10.294;2024-01-15T02:42:07;-1.20;99.90
19232;DHT22;9750;48.730;10.294;2024-01-15T02:44:34;-1.10;99.90
19232;DHT22;9750;48.730;10.294;2024-01-15T02:47:00;-1.00;99.90
19232;DHT22;9750;48.730;10.294;2024-01-15T02:49:28;-1.10;99.90
19232;DHT22;9750;48.730;10.294;2024-01-15T02:51:55;-1.00;99.90
19232;DHT22;9750;48.730;10.294;2024-01-15T02:54:22;-1.00;99.90
19232;DHT22;9750;48.730;10.294;2024-01-15T02:56:49;-1.00;99.90
19232;DHT22;9750;48.730;10.294;2024-01-15T02:59:18;-1.00;99.90
19232;DHT22;9750;48.730;10.294;2024-01-15T03:01:45;-1.00;99.90
19232;DHT22;9750;48.730;10.294;2024-01-15T03:04:12;-0.90;99.90
19232;DHT22;9750;48.730;10.294;2024-01-15T03:06:40;-0.90;99.90
19232;DHT22;9750;48.730;10.294;2024-01-15T03:09:07;-0.90;99.90
19232;DHT22;9750;48.730;10.294;2024-01-15T03:11:37;-0.80;99.90
19232;DHT22;9750;48.730;10.294;2024-01-15T03:14:05;-0.80;99.90
19232;DHT22;9750;48.730;10.294;2024-01-15T03:16:33;-0.70;99.90
19232;DHT22;9750;48.730;10.294;2024-01-15T03:19:01;-0.70;99.90
19232;DHT22;9750;48.730;10.294;2024-01-15T03:21:28;-0.70;99.90
19232;DHT22;9750;48.730;10.294;2024-01-15T03:23:56;-0.70;99.90
19232;DHT22;9750;48.730;10.294;2024-01-15T03:26:23;-0.60;99.90
19232;DHT22;9750;48.730;10.294;2024-01-15T03:28:50;-0.50;99.90
19232;DHT22;9750;48.730;10.294;2024-01-15T03:31:17;-0.60;99.90
19232;DHT22;9750;48.730;10.294;2024-01-15T03:33:46;-0.60;99.90
19232;DHT22;9750;48.730;10.294;2024-01-15T03:36:13;-0.60;99.90
19232;DHT22;9750;48.730;10.294;2024-01-15T03:38:41;-0.50;99.90
19232;DHT22;9750;48.730;10.294;2024-01-15T03:41:09;-0.50;99.90
19232;DHT22;9750;48.730;10.294;2024-01-15T03:43:36;-0.50;99.90
19232;DHT22;9750;48.730;10.294;2024-01-15T03:46:03;-0.50;99.90
19232;DHT22;9750;48.730;10.294;2024-01-15T03:48:31;-0.60;99.90
19232;DHT22;9750;48.730;10.294;2024-01-15T03:51:00;-0.60;99.90
19232;DHT22;9750;48.730;10.294;2024-01-15T03:53:27;-0.60;99.90
19232;DHT22;9750;48.730;10.294;2024-01-15T03:55:54;-0.50;99.90
19232;DHT22;9750;48.730;10.294;2024-01-15T03:58:21;-0.40;99.90
19232;DHT22;9750;48.730;10.294;2024-01-15T04:00:49;-0.50;99.90
19232;DHT22;9750;48.730;10.294;2024-01-15T04:03:16;-0.50;99.90
19232;DHT22;9750;48.730;10.294;2024-01-15T04:05:43;-0.40;99.90
19232;DHT22;9750;48.730;10.294;2024-01-15T04:08:12;-0.40;99.90
19232;DHT22;9750;48.730;10.294;2024-01-15T04:10:39;-0.30;99.90
19232;DHT22;9750;48.730;10.294;2024-01-15T04:13:07;-0.40;99.90
19232;DHT22;9750;48.730;10.294;2024-01-15T04:15:34;-0.40;99.90
19232;DHT22;9750;48.730;10.294;2024-01-15T04:18:02;-0.40;99.90
19232;DHT22;9750;48.730;10.294;2024-01-15T04:20:30;-0.30;99.90
19232;DHT22;9750;48.730;10.294;2024-01-15T04:22:57;-0.30;99.90
19232;DHT22;9750;48.730;10.294;2024-01-15T04:25:29;-0.30;99.90
19232;DHT22;9750;48.730;10.294;2024-01-15T04:27:56;-0.40;99.90
19232;DHT22;9750;48.730;10.294;2024-01-15T04:30:23;-0.40;99.90
19232;DHT22;9750;48.730;10.294;2024-01-15T04:32:50;-0.40;99.90
19232;DHT22;9750;48.730;10.294;2024-01-15T04:35:18;-0.40;99.90
19232;DHT22;9750;48.730;10.294;2024-01-15T04:37:45;-0.30;99.90
19232;DHT22;9750;48.730;10.294;2024-01-15T04:40:12;-0.30;99.90
19232;DHT22;9750;48.730;10.294;2024-01-15T04:42:41;-0.30;99.90
19232;DHT22;9750;48.730;10.294;2024-01-15T04:45:11;-0.20;99.90
19232;DHT22;9750;48.730;10.294;2024-01-15T04:47:39;-0.30;99.90
19232;DHT22;9750;48.730;10.294;2024-01-15T04:50:07;-0.20;99.90
19232;DHT22;9750;48.730;10.294;2024-01-15T04:52:34;-0.20;99.90
19232;DHT22;9750;48.730;10.294;2024-01-15T04:55:01;-0.30;99.90
19232;DHT22;9750;48.730;10.294;2024-01-15T04:57:29;-0.30;99.90
19232;DHT22;9750;48.730;10.294;2024-01-15T04:59:57;-0.30;99.90
19232;DHT22;9750;48.730;10.294;2024-01-15T05:02:25;-0.30;99.90
19232;DHT22;9750;48.730;10.294;2024-01-15T05:04:52;-0.30;99.90
19232;DHT22;9750;48.730;10.294;2024-01-15T05:07:19;-0.20;99.90
19232;DHT22;9750;48.730;10.294;2024-01-15T05:09:46;-0.20;99.90
19232;DHT22;9750;48.730;10.294;2024-01-15T05:12:13;-0.10;99.90
19232;DHT22;9750;48.730;10.294;2024-01-15T05:14:41;-0.20;99.90
19232;DHT22;9750;48.730;10.294;2024-01-15T05:17:09;-0.20;99.90
19232;DHT22;9750;48.730;10.294;2024-01-15T05:19:37;-0.20;99.90
19232;DHT22;9750;48.730;10.294;2024-01-15T05:22:04;-0.20;99.90
19232;DHT22;9750;48.730;10.294;2024-01-15T05:24:31;-0.20;99.90
19232;DHT22;9750;48.730;10.294;2024-01-15T05:26:58;-0.20;99.90
19232;DHT22;9750;48.730;10.294;2024-01-15T05:29:25;-0.20;99.90
19232;DHT22;9750;48.730;10.294;2024-01-15T05:31:53;-0.20;99.90
19232;DHT22;9750;48.730;10.294;2024-01-15T05:34:22;-0.20;99.90
19232;DHT22;9750;48.730;10.294;2024-01-15T05:36:49;-0.20;99.90
19232;DHT22;9750;48.730;10.294;2024-01-15T05:39:17;-0.10;99.90
19232;DHT22;9750;48.730;10.294;2024-01-15T05:41:44;-0.10;99.90
19232;DHT22;9750;48.730;10.294;2024-01-15T05:44:11;-0.10;99.90
19232;DHT22;9750;48.730;10.294;2024-01-15T05:46:38;-0.20;99.90
19232;DHT22;9750;48.730;10.294;2024-01-15T05:49:06;-0.10;99.90
19232;DHT22;9750;48.730;10.294;2024-01-15T05:51:34;-0.10;99.90
19232;DHT22;9750;48.730;10.294;2024-01-15T05:54:01;-0.10;99.90
19232;DHT22;9750;48.730;10.294;2024-01-15T05:56:29;0.00;99.90
19232;DHT22;9750;48.730;10.294;2024-01-15T05:58:56;0.00;99.90
19232;DHT22;9750;48.730;10.294;2024-01-15T06:01:23;0.00;99.90
19232;DHT22;9750;48.730;10.294;2024-01-15T06:03:51;0.00;99.90
19232;DHT22;9750;48.730;10.294;2024-01-15T06:06:18;0.00;99.90
19232;DHT22;9750;48.730;10.294;2024-01-15T06:08:46;0.00;99.90
19232;DHT22;9750;48.730;10.294;2024-01-15T06:11:14;0.00;99.90
19232;DHT22;9750;48.730;10.294;2024-01-15T06:13:41;0.00;99.90
19232;DHT22;9750;48.730;10.294;2024-01-15T06:16:13;0.00;99.90
19232;DHT22;9750;48.730;10.294;2024-01-15T06:18:41;0.00;99.90
19232;DHT22;9750;48.730;10.294;2024-01-15T06:21:08;0.00;99.90
19232;DHT22;9750;48.730;10.294;2024-01-15T06:23:37;0.00;99.90
19232;DHT22;9750;48.730;10.294;2024-01-15T06:26:05;0.00;99.90
19232;DHT22;9750;48.730;10.294;2024-01-15T06:28:33;0.00;99.90
19232;DHT22;9750;48.730;10.294;2024-01-15T06:31:00;0.10;99.90
19232;DHT22;9750;48.730;10.294;2024-01-15T06:33:27;0.10;99.90
19232;DHT22;9750;48.730;10.294;2024-01-15T06:35:54;0.10;99.90
19232;DHT22;9750;48.730;10.294;2024-01-15T06:38:22;0.10;99.90
19232;DHT22;9750;48.730;10.294;2024-01-15T06:40:50;0.10;99.90
19232;DHT22;9750;48.730;10.294;2024-01-15T06:43:19;0.10;99.90
19232;DHT22;9750;48.730;10.294;2024-01-15T06:45:46;0.20;99.90
19232;DHT22;9750;48.730;10.294;2024-01-15T06:48:14;0.20;99.90
19232;DHT22;9750;48.730;10.294;2024-01-15T06:50:42;0.20;99.90
19232;DHT22;9750;48.730;10.294;2024-01-15T06:53:09;0.20;99.90
19232;DHT22;9750;48.730;10.294;2024-01-15T06:55:37;0.10;99.90
19232;DHT22;9750;48.730;10.294;2024-01-15T06:58:04;0.10;99.90
19232;DHT22;9750;48.730;10.294;2024-01-15T07:00:33;0.10;99.90
19232;DHT22;9750;48.730;10.294;2024-01-15T07:03:00;0.10;99.90
19232;DHT22;9750;48.730;10.294;2024-01-15T07:05:27;0.20;99.90
19232;DHT22;9750;48.730;10.294;2024-01-15T07:07:55;0.20;99.90
19232;DHT22;9750;48.730;10.294;2024-01-15T07:10:23;0.20;99.90
19232;DHT22;9750;48.730;10.294;2024-01-15T07:12:50;0.20;99.90
19232;DHT22;9750;48.730;10.294;2024-01-15T07:15:17;0.20;99.90
19232;DHT22;9750;48.730;10.294;2024-01-15T07:17:46;0.20;99.90
19232;DHT22;9750;48.730;10.294;2024-01-15T07:20:13;0.20;99.90
19232;DHT22;9750;48.730;10.294;2024-01-15T07:22:41;0.20;99.90
19232;DHT22;9750;48.730;10.294;2024-01-15T07:25:08;0.20;99.90
19232;DHT22;9750;48.730;10.294;2024-01-15T07:27:35;0.20;99.90
19232;DHT22;9750;48.730;10.294;2024-01-15T07:30:03;0.10;99.90
19232;DHT22;9750;48.730;10.294;2024-01-15T07:32:32;0.10;99.90
19232;DHT22;9750;48.730;10.294;2024-01-15T07:35:00;0.20;99.90
19232;DHT22;9750;48.730;10.294;2024-01-15T07:37:28;0.30;99.90
19232;DHT22;9750;48.730;10.294;2024-01-15T07:39:55;0.30;99.90
19232;DHT22;9750;48.730;10.294;2024-01-15T07:42:22;0.30;99.90
19232;DHT22;9750;48.730;10.294;2024-01-15T07:44:49;0.40;99.90
19232;DHT22;9750;48.730;10.294;2024-01-15T07:47:17;0.40;99.90
19232;DHT22;9750;48.730;10.294;2024-01-15T07:49:44;0.40;99.90
19232;DHT22;9750;48.730;10.294;2024-01-15T07:52:13;0.50;99.90
19232;DHT22;9750;48.730;10.294;2024-01-15T07:54:40;0.50;99.90
19232;DHT22;9750;48.730;10.294;2024-01-15T07:57:07;0.50;99.90
19232;DHT22;9750;48.730;10.294;2024-01-15T07:59:35;0.50;99.90
19232;DHT22;9750;48.730;10.294;2024-01-15T08:02:03;0.50;99.90
19232;DHT22;9750;48.730;10.294;2024-01-15T08:04:30;0.40;99.90
19232;DHT22;9750;48.730;10.294;2024-01-15T08:06:57;0.40;99.90
19232;DHT22;9750;48.730;10.294;2024-01-15T08:09:26;0.50;99.90
19232;DHT22;9750;48.730;10.294;2024-01-15T08:11:53;0.40;99.90
19232;DHT22;9750;48.730;10.294;2024-01-15T08:14:20;0.50;99.90
19232;DHT22;9750;48.730;10.294;2024-01-15T08:16:47;0.60;99.90
19232;DHT22;9750;48.730;10.294;2024-01-15T08:19:15;0.60;99.90
19232;DHT22;9750;48.730;10.294;2024-01-15T08:21:42;0.50;99.90
19232;DHT22;9750;48.730;10.294;2024-01-15T08:24:09;0.50;99.90
19232;DHT22;9750;48.730;10.294;2024-01-15T08:26:38;0.50;99.90
19232;DHT22;9750;48.730;10.294;2024-01-15T08:29:05;0.50;99.90
19232;DHT22;9750;48.730;10.294;2024-01-15T08:31:32;0.60;99.90
19232;DHT22;9750;48.730;10.294;2024-01-15T08:34:00;0.60;99.90
19232;DHT22;9750;48.730;10.294;2024-01-15T08:36:28;0.70;99.90
19232;DHT22;9750;48.730;10.294;2024-01-15T08:38:56;0.70;99.90
19232;DHT22;9750;48.730;10.294;2024-01-15T08:41:23;0.70;99.90
19232;DHT22;9750;48.730;10.294;2024-01-15T08:43:52;0.80;99.90
19232;DHT22;9750;48.730;10.294;2024-01-15T08:46:19;0.80;99.90
19232;DHT22;9750;48.730;10.294;2024-01-15T08:48:47;0.80;99.90
19232;DHT22;9750;48.730;10.294;2024-01-15T08:51:14;0.70;99.90
19232;DHT22;9750;48.730;10.294;2024-01-15T08:53:41;0.70;99.90
19232;DHT22;9750;48.730;10.294;2024-01-15T08:56:09;0.80;99.90
19232;DHT22;9750;48.730;10.294;2024-01-15T08:58:37;0.90;99.90
19232;DHT22;9750;48.730;10.294;2024-01-15T09:01:05;1.00;99.90
19232;DHT22;9750;48.730;10.294;2024-01-15T09:03:33;1.10;99.90
19232;DHT22;9750;48.730;10.294;2024-01-15T09:06:33;1.20;99.90
19232;DHT22;9750;48.730;10.294;2024-01-15T09:09:00;1.20;99.90
19232;DHT22;9750;48.730;10.294;2024-01-15T09:11:28;1.30;99.90
19232;DHT22;9750;48.730;10.294;2024-01-15T09:13:55;1.30;99.90
19232;DHT22;9750;48.730;10.294;2024-01-15T09:16:24;1.30;99.90
19232;DHT22;9750;48.730;10.294;2024-01-15T09:18:51;1.20;99.90
19232;DHT22;9750;48.730;10.294;2024-01-15T09:21:18;1.10;99.90
19232;DHT22;9750;48.730;10.294;2024-01-15T09:23:46;1.20;99.90
19232;DHT22;9750;48.730;10.294;2024-01-15T09:26:13;1.20;99.90
19232;DHT22;9750;48.730;10.294;2024-01-15T09:28:40;1.10;99.90
19232;DHT22;9750;48.730;10.294;2024-01-15T09:31:07;1.20;99.90
19232;DHT22;9750;48.730;10.294;2024-01-15T09:33:36;1.20;99.90
19232;DHT22;9750;48.730;10.294;2024-01-15T09:36:04;1.20;99.90
19232;DHT22;9750;48.730;10.294;2024-01-15T09:38:31;1.20;99.90
19232;DHT22;9750;48.730;10.294;2024-01-15T09:40:59;1.20;99.90
19232;DHT22;9750;48.730;10.294;2024-01-15T09:43:26;1.30;99.90
19232;DHT22;9750;48.730;10.294;2024-01-15T09:45:54;1.30;99.90
19232;DHT22;9750;48.730;10.294;2024-01-15T09:48:21;1.40;99.90
19232;DHT22;9750;48.730;10.294;2024-01-15T09:50:50;1.50;99.90
19232;DHT22;9750;48.730;10.294;2024-01-15T09:53:19;1.50;99.90
19232;DHT22;9750;48.730;10.294;2024-01-15T09:55:46;1.50;99.90
19232;DHT22;9750;48.730;10.294;2024-01-15T09:58:16;1.50;99.90
19232;DHT22;9750;48.730;10.294;2024-01-15T10:00:44;1.50;99.90
19232;DHT22;9750;48.730;10.294;2024-01-15T10:03:12;1.40;99.90
19232;DHT22;9750;48.730;10.294;2024-01-15T10:05:39;1.50;99.90
19232;DHT22;9750;48.730;10.294;2024-01-15T10:08:09;1.60;99.90
19232;DHT22;9750;48.730;10.294;2024-01-15T10:10:37;1.60;99.90
19232;DHT22;9750;48.730;10.294;2024-01-15T10:13:04;1.60;99.90
19232;DHT22;9750;48.730;10.294;2024-01-15T10:15:47;1.70;99.90
19232;DHT22;9750;48.730;10.294;2024-01-15T10:18:15;1.70;99.90
19232;DHT22;9750;48.730;10.294;2024-01-15T10:20:43;1.70;99.90
19232;DHT22;9750;48.730;10.294;2024-01-15T10:23:11;1.80;99.90
19232;DHT22;9750;48.730;10.294;2024-01-15T10:25:38;1.80;99.90
19232;DHT22;9750;48.730;10.294;2024-01-15T10:28:08;1.80;99.90
19232;DHT22;9750;48.730;10.294;2024-01-15T10:30:35;1.80;99.90
19232;DHT22;9750;48.730;10.294;2024-01-15T10:33:03;1.80;99.90
19232;DHT22;9750;48.730;10.294;2024-01-15T10:35:32;1.80;99.90
19232;DHT22;9750;48.730;10.294;2024-01-15T10:37:59;1.80;99.90
19232;DHT22;9750;48.730;10.294;2024-01-15T10:40:29;1.90;99.90
19232;DHT22;9750;48.730;10.294;2024-01-15T10:42:56;1.80;99.90
19232;DHT22;9750;48.730;10.294;2024-01-15T10:45:24;1.90;99.90
19232;DHT22;9750;48.730;10.294;2024-01-15T10:47:51;1.90;99.90
19232;DHT22;9750;48.730;10.294;2024-01-15T10:50:20;1.90;99.90
19232;DHT22;9750;48.730;10.294;2024-01-15T10:52:48;1.90;99.90
19232;DHT22;9750;48.730;10.294;2024-01-15T10:55:15;1.90;99.90
19232;DHT22;9750;48.730;10.294;2024-01-15T10:57:45;1.90;99.90
19232;DHT22;9750;48.730;10.294;2024-01-15T11:00:14;1.90;99.90
19232;DHT22;9750;48.730;10.294;2024-01-15T11:02:42;1.90;99.90
19232;DHT22;9750;48.730;10.294;2024-01-15T11:08:42;1.90;99.90
19232;DHT22;9750;48.730;10.294;2024-01-15T11:11:09;1.90;99.90
19232;DHT22;9750;48.730;10.294;2024-01-15T11:13:41;1.90;99.90
19232;DHT22;9750;48.730;10.294;2024-01-15T11:16:11;1.90;99.90
19232;DHT22;9750;48.730;10.294;2024-01-15T11:18:41;1.90;99.90
19232;DHT22;9750;48.730;10.294;2024-01-15T11:21:24;2.00;99.90
19232;DHT22;9750;48.730;10.294;2024-01-15T11:23:54;2.00;99.90
19232;DHT22;9750;48.730;10.294;2024-01-15T11:26:30;2.00;99.90
19232;DHT22;9750;48.730;10.294;2024-01-15T11:29:00;2.00;99.90
19232;DHT22;9750;48.730;10.294;2024-01-15T11:31:29;2.00;99.90
19232;DHT22;9750;48.730;10.294;2024-01-15T11:33:57;2.10;99.90
19232;DHT22;9750;48.730;10.294;2024-01-15T11:39:41;2.10;99.90
19232;DHT22;9750;48.730;10.294;2024-01-15T11:42:10;2.10;99.90
19232;DHT22;9750;48.730;10.294;2024-01-15T11:44:40;2.20;99.90
19232;DHT22;9750;48.730;10.294;2024-01-15T11:47:09;2.10;99.90
19232;DHT22;9750;48.730;10.294;2024-01-15T11:49:59;2.00;99.90
19232;DHT22;9750;48.730;10.294;2024-01-15T11:52:32;2.00;99.90
19232;DHT22;9750;48.730;10.294;2024-01-15T11:55:05;2.00;99.90
19232;DHT22;9750;48.730;10.294;2024-01-15T11:57:41;1.90;99.90
19232;DHT22;9750;48.730;10.294;2024-01-15T12:00:13;1.80;99.90
19232;DHT22;9750;48.730;10.294;2024-01-15T12:02:41;1.90;99.90
19232;DHT22;9750;48.730;10.294;2024-01-15T12:05:09;1.90;99.90
19232;DHT22;9750;48.730;10.294;2024-01-15T12:07:38;1.90;99.90
19232;DHT22;9750;48.730;10.294;2024-01-15T12:10:09;1.90;99.90
19232;DHT22;9750;48.730;10.294;2024-01-15T12:12:57;1.80;99.90
19232;DHT22;9750;48.730;10.294;2024-01-15T12:15:36;1.80;99.90
19232;DHT22;9750;48.730;10.294;2024-01-15T12:18:04;1.90;99.90
19232;DHT22;9750;48.730;10.294;2024-01-15T12:20:32;1.80;99.90
19232;DHT22;9750;48.730;10.294;2024-01-15T12:23:00;1.80;99.90
19232;DHT22;9750;48.730;10.294;2024-01-15T12:25:45;1.80;99.90
19232;DHT22;9750;48.730;10.294;2024-01-15T12:28:13;1.70;99.90
19232;DHT22;9750;48.730;10.294;2024-01-15T12:30:41;1.60;99.90
19232;DHT22;9750;48.730;10.294;2024-01-15T12:33:10;1.70;99.90
19232;DHT22;9750;48.730;10.294;2024-01-15T12:35:37;1.60;99.90
19232;DHT22;9750;48.730;10.294;2024-01-15T12:38:04;1.60;99.90
19232;DHT22;9750;48.730;10.294;2024-01-15T12:40:32;1.70;99.90
19232;DHT22;9750;48.730;10.294;2024-01-15T12:43:00;1.70;99.90
19232;DHT22;9750;48.730;10.294;2024-01-15T12:45:27;1.70;99.90
19232;DHT22;9750;48.730;10.294;2024-01-15T12:47:56;1.70;99.90
19232;DHT22;9750;48.730;10.294;2024-01-15T12:50:24;1.70;99.90
19232;DHT22;9750;48.730;10.294;2024-01-15T12:52:52;1.60;99.90
19232;DHT22;9750;48.730;10.294;2024-01-15T12:55:19;1.70;99.90
19232;DHT22;9750;48.730;10.294;2024-01-15T12:57:46;1.70;99.90
19232;DHT22;9750;48.730;10.294;2024-01-15T13:00:15;1.70;99.90
19232;DHT22;9750;48.730;10.294;2024-01-15T13:02:43;1.80;99.90
19232;DHT22;9750;48.730;10.294;2024-01-15T13:05:12;1.70;99.90
19232;DHT22;9750;48.730;10.294;2024-01-15T13:07:39;1.70;99.90
19232;DHT22;9750;48.730;10.294;2024-01-15T13:10:07;1.70;99.90
19232;DHT22;9750;48.730;10.294;2024-01-15T13:12:36;1.70;99.90
19232;DHT22;9750;48.730;10.294;2024-01-15T13:15:04;1.60;99.90
19232;DHT22;9750;48.730;10.294;2024-01-15T13:17:31;1.60;99.90
19232;DHT22;9750;48.730;10.294;2024-01-15T13:19:58;1.60;99.90
19232;DHT22;9750;48.730;10.294;2024-01-15T13:22:27;1.60;99.90
19232;DHT22;9750;48.730;10.294;2024-01-15T13:24:57;1.70;99.90
19232;DHT22;9750;48.730;10.294;2024-01-15T13:27:24;1.70;99.90
19232;DHT22;9750;48.730;10.294;2024-01-15T13:29:52;1.70;99.90
19232;DHT22;9750;48.730;10.294;2024-01-15T13:32:24;1.70;99.90
19232;DHT22;9750;48.730;10.294;2024-01-15T13:34:52;1.80;99.90
19232;DHT22;9750;48.730;10.294;2024-01-15T13:37:19;1.70;99.90
19232;DHT22;9750;48.730;10.294;2024-01-15T13:39:48;1.80;99.90
19232;DHT22;9750;48.730;10.294;2024-01-15T13:42:17;1.70;99.90
19232;DHT22;9750;48.730;10.294;2024-01-15T13:44:44;1.70;99.90
19232;DHT22;9750;48.730;10.294;2024-01-15T13:47:12;1.70;99.90
19232;DHT22;9750;48.730;10.294;2024-01-15T13:49:39;1.70;99.90
19232;DHT22;9750;48.730;10.294;2024-01-15T13:52:06;1.60;99.90
19232;DHT22;9750;48.730;10.294;2024-01-15T13:54:33;1.60;99.90
19232;DHT22;9750;48.730;10.294;2024-01-15T13:57:02;1.60;99.90
19232;DHT22;9750;48.730;10.294;2024-01-15T13:59:31;1.50;99.90
19232;DHT22;9750;48.730;10.294;2024-01-15T14:01:58;1.50;99.90
19232;DHT22;9750;48.730;10.294;2024-01-15T14:04:26;1.50;99.90
19232;DHT22;9750;48.730;10.294;2024-01-15T14:06:53;1.40;99.90
19232;DHT22;9750;48.730;10.294;2024-01-15T14:09:20;1.40;99.90
19232;DHT22;9750;48.730;10.294;2024-01-15T14:11:48;1.30;99.90
19232;DHT22;9750;48.730;10.294;2024-01-15T14:14:20;1.30;99.90
19232;DHT22;9750;48.730;10.294;2024-01-15T14:16:47;1.30;99.90
19232;DHT22;9750;48.730;10.294;2024-01-15T14:19:14;1.30;99.90
19232;DHT22;9750;48.730;10.294;2024-01-15T14:21:42;1.30;99.90
19232;DHT22;9750;48.730;10.294;2024-01-15T14:24:09;1.30;99.90
19232;DHT22;9750;48.730;10.294;2024-01-15T14:26:36;1.30;99.90
19232;DHT22;9750;48.730;10.294;2024-01-15T14:29:04;1.20;99.90
19232;DHT22;9750;48.730;10.294;2024-01-15T14:31:33;1.30;99.90
19232;DHT22;9750;48.730;10.294;2024-01-15T14:34:00;1.20;99.90
19232;DHT22;9750;48.730;10.294;2024-01-15T14:36:28;1.10;99.90
19232;DHT22;9750;48.730;10.294;2024-01-15T14:38:56;1.10;99.90
19232;DHT22;9750;48.730;10.294;2024-01-15T14:41:23;1.10;99.90
19232;DHT22;9750;48.730;10.294;2024-01-15T14:43:50;1.00;99.90
19232;DHT22;9750;48.730;10.294;2024-01-15T14:46:17;1.00;99.90
19232;DHT22;9750;48.730;10.294;2024-01-15T14:48:46;0.90;99.90
19232;DHT22;9750;48.730;10.294;2024-01-15T14:51:13;0.90;99.90
19232;DHT22;9750;48.730;10.294;2024-01-15T14:53:40;1.00;99.90
19232;DHT22;9750;48.730;10.294;2024-01-15T14:56:09;0.80;99.90
19232;DHT22;9750;48.730;10.294;2024-01-15T14:58:36;0.80;99.90
19232;DHT22;9750;48.730;10.294;2024-01-15T15:01:04;0.80;99.90
19232;DHT22;9750;48.730;10.294;2024-01-15T15:03:31;0.80;99.90
19232;DHT22;9750;48.730;10.294;2024-01-15T15:06:00;0.70;99.90
19232;DHT22;9750;48.730;10.294;2024-01-15T15:08:27;0.60;99.90
19232;DHT22;9750;48.730;10.294;2024-01-15T15:10:54;0.50;99.90
19232;DHT22;9750;48.730;10.294;2024-01-15T15:13:22;0.50;99.90
19232;DHT22;9750;48.730;10.294;2024-01-15T15:15:51;0.50;99.90
19232;DHT22;9750;48.730;10.294;2024-01-15T15:18:19;0.40;99.90
19232;DHT22;9750;48.730;10.294;2024-01-15T15:20:47;0.40;99.90
19232;DHT22;9750;48.730;10.294;2024-01-15T15:23:18;0.30;99.90
19232;DHT22;9750;48.730;10.294;2024-01-15T15:25:45;0.20;99.90
19232;DHT22;9750;48.730;10.294;2024-01-15T15:28:12;0.20;99.90
19232;DHT22;9750;48.730;10.294;2024-01-15T15:30:41;0.00;99.90
19232;DHT22;9750;48.730;10.294;2024-01-15T15:33:09;0.00;99.90
19232;DHT22;9750;48.730;10.294;2024-01-15T15:35:53;0.00;99.90
19232;DHT22;9750;48.730;10.294;2024-01-15T15:38:22;0.10;99.90
19232;DHT22;9750;48.730;10.294;2024-01-15T15:40:49;0.10;99.90
19232;DHT22;9750;48.730;10.294;2024-01-15T15:43:16;0.10;99.90
19232;DHT22;9750;48.730;10.294;2024-01-15T15:45:44;0.10;99.90
19232;DHT22;9750;48.730;10.294;2024-01-15T15:48:11;0.00;99.90
19232;DHT22;9750;48.730;10.294;2024-01-15T15:50:39;0.10;99.90
19232;DHT22;9750;48.730;10.294;2024-01-15T15:53:06;0.00;99.90